Time;durP1;ratioP1;P1;durP2;ratioP2;P2;SDS_P1;SDS_P2;PMS_P1;PMS_P2;Temp;Humidity;BMP_temperature;BMP_pressure;BME280_temperature;BME280_humidity;BME280_pressure;Samples;Min_cycle;Max_cycle;Signal;HPM_P1;HPM_P2
2022/07/10 00:00:41;;;;;;;5.50;1.40;;;14.40;99.90;;;;;;6209533;23;20027;-67
2022/07/10 00:03:06;;;;;;;12.15;2.10;;;14.40;99.90;;;;;;6210662;23;20525;-67
2022/07/10 00:05:34;;;;;;;13.45;2.20;;;14.40;99.90;;;;;;6209315;23;20479;-67
2022/07/10 00:08:00;;;;;;;8.07;2.47;;;14.40;99.90;;;;;;6210999;23;20051;-68
2022/07/10 00:10:26;;;;;;;9.52;1.90;;;14.40;99.90;;;;;;6235949;23;20050;-68
2022/07/10 00:12:52;;;;;;;7.90;1.40;;;14.40;99.90;;;;;;6186440;23;20102;-68
2022/07/10 00:15:18;;;;;;;4.72;1.40;;;14.40;99.90;;;;;;6159924;23;20024;-68
2022/07/10 00:17:45;;;;;;;9.82;1.70;;;14.40;99.90;;;;;;6210435;23;20424;-68
2022/07/10 00:20:12;;;;;;;9.02;1.40;;;14.40;99.90;;;;;;6210012;23;20087;-67
2022/07/10 00:22:39;;;;;;;4.82;1.15;;;14.40;99.90;;;;;;6209979;23;20016;-67
2022/07/10 00:25:06;;;;;;;8.57;1.48;;;14.40;99.90;;;;;;6211175;23;20016;-68
2022/07/10 00:27:32;;;;;;;9.25;1.48;;;14.40;99.90;;;;;;6211346;23;20012;-68
2022/07/10 00:29:58;;;;;;;5.32;1.50;;;14.40;99.90;;;;;;6212934;23;20024;-68
2022/07/10 00:32:24;;;;;;;5.75;1.05;;;14.40;99.90;;;;;;6186161;23;20016;-67
2022/07/10 00:34:50;;;;;;;6.03;1.42;;;14.40;99.90;;;;;;6239505;23;20020;-67
2022/07/10 00:37:16;;;;;;;4.88;1.25;;;14.40;99.90;;;;;;6211954;23;20024;-67
2022/07/10 00:39:42;;;;;;;6.80;1.40;;;14.40;99.90;;;;;;6238673;23;20470;-67
2022/07/10 00:42:08;;;;;;;7.43;1.17;;;14.40;99.90;;;;;;6212374;23;20023;-67
2022/07/10 00:44:35;;;;;;;6.95;1.27;;;14.40;99.90;;;;;;6211541;23;20070;-67
2022/07/10 00:47:02;;;;;;;8.70;1.33;;;14.50;99.90;;;;;;6187805;23;20102;-68
2022/07/10 00:49:27;;;;;;;10.68;1.63;;;14.50;99.90;;;;;;6211173;23;20027;-67
2022/07/10 00:51:53;;;;;;;8.55;1.25;;;14.50;99.90;;;;;;6187502;23;20024;-67
2022/07/10 00:54:20;;;;;;;4.72;1.27;;;14.50;99.90;;;;;;6211590;23;20063;-68
2022/07/10 00:56:48;;;;;;;6.03;1.52;;;14.50;99.90;;;;;;6211495;23;20451;-68
2022/07/10 00:59:13;;;;;;;7.97;1.88;;;14.50;99.90;;;;;;6212286;23;20107;-67
2022/07/10 01:01:39;;;;;;;7.40;1.35;;;14.50;99.90;;;;;;6211171;23;20051;-68
2022/07/10 01:04:05;;;;;;;7.70;1.67;;;14.50;99.90;;;;;;6212667;23;20137;-67
2022/07/10 01:06:32;;;;;;;8.70;1.08;;;14.50;99.90;;;;;;6237236;23;20020;-67
2022/07/10 01:08:58;;;;;;;5.82;1.15;;;14.50;99.90;;;;;;6239548;23;20024;-67
2022/07/10 01:11:24;;;;;;;2.85;1.17;;;14.50;99.90;;;;;;6210578;23;20357;-68
2022/07/10 01:13:50;;;;;;;4.32;1.27;;;14.50;99.90;;;;;;6213084;23;20027;-67
2022/07/10 01:16:17;;;;;;;9.27;1.73;;;14.40;99.90;;;;;;6186444;23;20048;-68
2022/07/10 01:18:42;;;;;;;5.40;1.40;;;14.50;99.90;;;;;;6211764;23;20016;-68
2022/07/10 01:21:31;;;;;;;11.05;1.77;;;14.50;99.90;;;;;;6211945;23;20028;-68
2022/07/10 01:23:57;;;;;;;2.95;1.20;;;14.60;99.90;;;;;;6186228;23;20078;-68
2022/07/10 01:26:24;;;;;;;21.15;1.83;;;14.50;99.90;;;;;;6239430;23;20012;-67
2022/07/10 01:28:54;;;;;;;7.97;1.35;;;14.50;99.90;;;;;;6238395;23;20602;-67
2022/07/10 01:31:26;;;;;;;9.60;1.58;;;14.50;99.90;;;;;;6211679;23;20502;-67
2022/07/10 01:33:53;;;;;;;12.05;1.60;;;14.40;99.90;;;;;;6212035;23;20020;-68
2022/07/10 01:36:23;;;;;;;6.32;1.40;;;14.40;99.90;;;;;;6185477;23;20074;-67
2022/07/10 01:38:52;;;;;;;10.13;1.63;;;14.40;99.90;;;;;;6211688;23;20426;-68
2022/07/10 01:41:18;;;;;;;10.38;1.27;;;14.40;99.90;;;;;;6210572;23;20019;-68
2022/07/10 01:43:44;;;;;;;4.15;1.20;;;14.40;99.90;;;;;;6238980;23;20035;-67
2022/07/10 01:46:13;;;;;;;5.05;1.42;;;14.40;99.90;;;;;;6210822;23;20095;-67
2022/07/10 01:48:39;;;;;;;5.97;1.38;;;14.40;99.90;;;;;;6211205;23;20295;-67
2022/07/10 01:51:05;;;;;;;10.93;1.55;;;14.40;99.90;;;;;;6211415;23;20463;-67
2022/07/10 01:53:31;;;;;;;6.93;1.50;;;14.40;99.90;;;;;;6210878;23;20277;-68
2022/07/10 01:55:58;;;;;;;8.15;2.10;;;14.40;99.90;;;;;;6212226;23;20486;-67
2022/07/10 01:58:23;;;;;;;6.97;1.23;;;14.50;99.90;;;;;;6210563;23;20514;-68
2022/07/10 02:00:49;;;;;;;5.80;1.55;;;14.50;99.90;;;;;;6186627;23;20067;-68
2022/07/10 02:05:59;;;;;;;8.85;1.52;;;14.40;99.90;;;;;;6239043;23;20054;-68
2022/07/10 02:08:25;;;;;;;8.20;1.27;;;14.40;99.90;;;;;;6211271;23;20359;-68
2022/07/10 02:10:51;;;;;;;11.35;1.15;;;14.40;99.90;;;;;;6210973;23;20031;-68
2022/07/10 02:13:19;;;;;;;5.95;1.13;;;14.40;99.90;;;;;;6211707;23;20028;-68
2022/07/10 02:15:46;;;;;;;7.38;1.48;;;14.40;99.90;;;;;;6210057;23;20043;-68
2022/07/10 02:18:11;;;;;;;7.15;1.23;;;14.40;99.90;;;;;;6238869;23;20020;-67
2022/07/10 02:20:37;;;;;;;8.15;1.80;;;14.40;99.90;;;;;;6210196;23;20019;-68
2022/07/10 02:23:03;;;;;;;12.65;1.70;;;14.40;99.90;;;;;;6211956;23;20020;-68
2022/07/10 02:25:29;;;;;;;11.50;2.83;;;14.40;99.90;;;;;;6211220;23;20095;-68
2022/07/10 02:27:57;;;;;;;7.53;1.52;;;14.40;99.90;;;;;;6212083;23;20048;-68
2022/07/10 02:30:23;;;;;;;7.15;1.75;;;14.40;99.90;;;;;;6211623;23;20435;-67
2022/07/10 02:32:49;;;;;;;10.60;2.25;;;14.40;99.90;;;;;;6184914;23;20020;-68
2022/07/10 02:35:14;;;;;;;5.97;1.42;;;14.40;99.90;;;;;;6186938;23;20012;-67
2022/07/10 02:37:40;;;;;;;8.20;1.60;;;14.40;99.90;;;;;;6209673;23;20084;-68
2022/07/10 02:40:07;;;;;;;9.85;1.70;;;14.40;99.90;;;;;;6211610;23;20030;-69
2022/07/10 02:42:33;;;;;;;10.27;2.65;;;14.40;99.90;;;;;;6234914;23;20028;-68
2022/07/10 02:44:58;;;;;;;14.05;1.65;;;14.50;99.90;;;;;;6236523;23;20027;-68
2022/07/10 02:47:24;;;;;;;14.20;1.85;;;14.50;99.90;;;;;;6161014;23;20016;-67
2022/07/10 02:49:50;;;;;;;4.07;1.70;;;14.50;99.90;;;;;;6210131;23;20051;-68
2022/07/10 02:52:15;;;;;;;8.65;1.45;;;14.50;99.90;;;;;;6211164;23;20384;-67
2022/07/10 02:54:41;;;;;;;10.48;1.48;;;14.60;99.90;;;;;;6209816;23;20026;-68
2022/07/10 02:57:08;;;;;;;9.30;1.70;;;14.70;99.90;;;;;;6187310;23;20386;-67
2022/07/10 02:59:34;;;;;;;10.02;1.95;;;14.70;99.30;;;;;;6209763;23;20074;-67
2022/07/10 03:02:00;;;;;;;8.27;1.48;;;14.80;99.90;;;;;;6236616;23;20135;-68
2022/07/10 03:04:27;;;;;;;14.68;1.45;;;14.80;99.60;;;;;;6235760;23;20137;-67
2022/07/10 03:06:53;;;;;;;10.70;1.40;;;14.80;99.90;;;;;;6235921;23;20088;-68
2022/07/10 03:09:18;;;;;;;8.57;1.60;;;14.80;99.90;;;;;;6236150;23;20048;-67
2022/07/10 03:11:44;;;;;;;6.57;1.70;;;14.80;99.90;;;;;;6184516;23;20565;-67
2022/07/10 03:14:10;;;;;;;7.05;1.70;;;14.80;99.90;;;;;;6211281;23;20077;-68
2022/07/10 03:16:36;;;;;;;9.85;1.80;;;14.90;98.60;;;;;;6210135;23;20130;-67
2022/07/10 03:19:02;;;;;;;8.05;1.27;;;14.90;98.10;;;;;;6211266;23;20451;-68
2022/07/10 03:21:30;;;;;;;9.10;1.95;;;14.90;99.90;;;;;;6237252;23;20063;-67
2022/07/10 03:23:55;;;;;;;11.50;1.85;;;14.90;99.90;;;;;;6237406;22;20490;-68
2022/07/10 03:26:21;;;;;;;7.88;1.30;;;14.90;99.90;;;;;;6235869;23;20020;-68
2022/07/10 03:28:47;;;;;;;6.38;1.50;;;14.80;99.90;;;;;;6234813;23;20024;-68
2022/07/10 03:31:12;;;;;;;5.85;1.52;;;14.80;99.90;;;;;;6236304;23;20139;-68
2022/07/10 03:33:38;;;;;;;8.95;1.45;;;14.80;99.90;;;;;;6236799;23;20016;-68
2022/07/10 03:36:05;;;;;;;5.50;1.20;;;14.70;99.90;;;;;;6161578;23;20062;-68
2022/07/10 03:38:30;;;;;;;11.88;1.88;;;14.70;99.90;;;;;;6210022;23;20022;-68
2022/07/10 03:40:56;;;;;;;11.68;1.45;;;14.70;99.90;;;;;;6210511;23;20366;-67
2022/07/10 03:43:22;;;;;;;4.90;1.10;;;14.70;99.90;;;;;;6184851;23;20016;-67
2022/07/10 03:45:47;;;;;;;7.18;1.70;;;14.60;99.90;;;;;;6210308;23;20396;-68
2022/07/10 03:48:13;;;;;;;9.23;2.28;;;14.60;99.90;;;;;;6210710;23;20038;-68
2022/07/10 03:50:39;;;;;;;10.35;1.50;;;14.70;99.90;;;;;;6209766;23;20024;-67
2022/07/10 03:53:05;;;;;;;12.07;1.70;;;14.70;99.90;;;;;;6185915;23;20451;-68
2022/07/10 03:55:30;;;;;;;7.10;1.75;;;14.70;99.90;;;;;;6209539;23;20023;-68
2022/07/10 03:57:57;;;;;;;12.40;2.67;;;14.80;99.90;;;;;;6210592;23;20304;-68
2022/07/10 04:00:32;;;;;;;11.82;2.40;;;14.80;99.90;;;;;;6186047;23;20016;-67
2022/07/10 04:03:00;;;;;;;13.63;2.10;;;14.80;99.90;;;;;;6212321;23;20397;-68
2022/07/10 04:05:27;;;;;;;10.90;1.98;;;14.90;99.90;;;;;;6212728;23;20022;-68
2022/07/10 04:07:53;;;;;;;16.52;3.38;;;15.00;99.90;;;;;;6212002;23;20050;-67
2022/07/10 04:10:19;;;;;;;16.67;2.90;;;15.00;99.90;;;;;;6212703;23;20016;-68
2022/07/10 04:12:45;;;;;;;10.38;2.38;;;15.10;99.90;;;;;;6210320;23;20443;-68
2022/07/10 04:15:11;;;;;;;15.95;2.05;;;15.10;99.90;;;;;;6188065;23;20020;-68
2022/07/10 04:17:37;;;;;;;6.50;1.85;;;15.10;99.90;;;;;;6186870;23;20028;-68
2022/07/10 04:20:03;;;;;;;16.27;2.75;;;15.10;99.90;;;;;;6212301;23;20016;-68
2022/07/10 04:22:29;;;;;;;9.73;1.45;;;15.20;99.90;;;;;;6212710;23;20321;-67
2022/07/10 04:24:55;;;;;;;7.80;1.98;;;15.20;99.90;;;;;;6211452;23;20052;-67
2022/07/10 04:27:21;;;;;;;9.25;1.95;;;15.20;99.30;;;;;;6187427;23;20408;-67
2022/07/10 04:29:47;;;;;;;15.00;1.90;;;15.30;99.90;;;;;;6210988;23;20397;-68
2022/07/10 04:32:14;;;;;;;10.57;1.88;;;15.30;99.90;;;;;;6239855;23;20031;-67
2022/07/10 04:34:40;;;;;;;10.48;2.45;;;15.40;99.90;;;;;;6238572;23;20074;-68
2022/07/10 04:37:07;;;;;;;11.95;1.92;;;15.40;99.90;;;;;;6212704;23;20024;-67
2022/07/10 04:39:34;;;;;;;9.02;1.70;;;15.40;99.90;;;;;;6211425;23;20438;-67
2022/07/10 04:42:01;;;;;;;16.25;2.08;;;15.40;99.90;;;;;;6187334;23;20024;-68
2022/07/10 04:44:27;;;;;;;12.30;2.60;;;15.40;99.90;;;;;;6239316;23;20028;-68
2022/07/10 04:46:53;;;;;;;14.57;2.63;;;15.40;99.90;;;;;;6211083;23;20066;-67
2022/07/10 04:49:19;;;;;;;24.52;2.35;;;15.50;99.90;;;;;;6213030;23;20021;-67
2022/07/10 04:51:45;;;;;;;8.23;2.13;;;15.50;99.90;;;;;;6237701;23;20038;-68
2022/07/10 04:54:10;;;;;;;15.25;1.92;;;15.60;99.90;;;;;;6212658;23;20359;-68
2022/07/10 04:56:36;;;;;;;11.15;2.60;;;15.50;99.90;;;;;;6211689;23;20024;-68
2022/07/10 04:59:02;;;;;;;9.43;2.20;;;15.50;99.90;;;;;;6212054;23;20367;-68
2022/07/10 05:01:28;;;;;;;23.83;3.42;;;15.50;99.90;;;;;;6211895;23;20020;-67
2022/07/10 05:03:53;;;;;;;10.85;1.92;;;15.50;99.90;;;;;;6238383;23;20095;-68
2022/07/10 05:06:19;;;;;;;10.45;1.77;;;15.50;99.90;;;;;;6212665;23;20100;-67
2022/07/10 05:08:45;;;;;;;16.73;2.30;;;15.40;99.90;;;;;;6211152;23;20107;-68
2022/07/10 05:11:11;;;;;;;10.55;1.60;;;15.40;99.90;;;;;;6212329;23;20023;-68
2022/07/10 05:13:37;;;;;;;8.63;1.80;;;15.40;99.90;;;;;;6238444;23;20043;-68
2022/07/10 05:16:04;;;;;;;10.75;2.08;;;15.40;99.90;;;;;;6212033;23;20332;-68
2022/07/10 05:18:29;;;;;;;11.15;1.95;;;15.30;99.90;;;;;;6211408;23;20020;-68
2022/07/10 05:20:55;;;;;;;18.35;2.60;;;15.30;99.90;;;;;;6211316;23;20075;-68
2022/07/10 05:23:21;;;;;;;8.95;1.73;;;15.30;99.90;;;;;;6211466;23;20031;-68
2022/07/10 05:25:47;;;;;;;10.70;1.88;;;15.30;99.90;;;;;;6210881;23;20028;-68
2022/07/10 05:28:14;;;;;;;23.92;2.33;;;15.30;99.90;;;;;;6187362;23;20016;-68
2022/07/10 05:30:41;;;;;;;9.80;2.20;;;15.40;99.90;;;;;;6185800;23;20031;-68
2022/07/10 05:33:06;;;;;;;10.73;2.33;;;15.40;99.90;;;;;;6209557;23;20059;-67
2022/07/10 05:35:32;;;;;;;14.10;2.17;;;15.40;99.90;;;;;;6209530;23;20443;-68
2022/07/10 05:37:58;;;;;;;11.15;2.58;;;15.40;99.90;;;;;;6211554;23;20023;-68
2022/07/10 05:40:24;;;;;;;8.43;1.45;;;15.40;99.90;;;;;;6238955;23;20046;-69
2022/07/10 05:42:50;;;;;;;13.77;3.20;;;15.30;99.90;;;;;;6185900;23;20103;-67
2022/07/10 05:45:17;;;;;;;9.27;2.25;;;15.30;99.90;;;;;;6187027;23;20063;-68
2022/07/10 05:47:42;;;;;;;7.82;1.70;;;15.30;99.90;;;;;;6211047;23;20020;-68
2022/07/10 05:50:09;;;;;;;15.18;2.40;;;15.30;99.90;;;;;;6211677;23;20078;-67
2022/07/10 05:52:34;;;;;;;10.27;1.98;;;15.30;99.90;;;;;;6210341;23;20031;-67
2022/07/10 05:55:00;;;;;;;11.35;1.88;;;15.30;99.90;;;;;;6211392;23;20087;-68
2022/07/10 05:57:26;;;;;;;10.02;2.17;;;15.30;99.90;;;;;;6211603;23;20020;-67
2022/07/10 05:59:52;;;;;;;11.50;2.00;;;15.30;99.90;;;;;;6185392;23;20491;-67
2022/07/10 06:02:18;;;;;;;15.77;2.85;;;15.30;99.90;;;;;;6187294;23;20335;-67
2022/07/10 06:04:43;;;;;;;5.75;1.60;;;15.30;99.90;;;;;;6211566;23;20016;-68
2022/07/10 06:07:09;;;;;;;6.93;1.60;;;15.30;99.90;;;;;;6238123;23;20023;-68
2022/07/10 06:09:35;;;;;;;8.52;1.85;;;15.30;99.90;;;;;;6210772;23;20019;-68
2022/07/10 06:12:00;;;;;;;12.05;1.90;;;15.30;99.90;;;;;;6211237;23;20034;-68
2022/07/10 06:14:26;;;;;;;10.05;1.90;;;15.30;99.90;;;;;;6211074;23;20028;-68
2022/07/10 06:16:52;;;;;;;14.45;2.75;;;15.30;99.90;;;;;;6210963;23;20019;-68
2022/07/10 06:19:18;;;;;;;10.15;1.55;;;15.30;99.90;;;;;;6238236;23;20024;-67
2022/07/10 06:21:44;;;;;;;8.05;1.77;;;15.30;99.90;;;;;;6185541;23;20055;-67
2022/07/10 06:24:10;;;;;;;11.43;2.10;;;15.20;99.90;;;;;;6210999;23;20042;-67
2022/07/10 06:26:36;;;;;;;13.20;2.28;;;15.20;99.90;;;;;;6211054;23;20020;-68
2022/07/10 06:29:02;;;;;;;12.40;2.70;;;15.10;99.90;;;;;;6211120;23;20012;-68
2022/07/10 06:31:28;;;;;;;11.15;1.65;;;15.10;99.90;;;;;;6237757;23;20016;-68
2022/07/10 06:33:55;;;;;;;10.30;2.35;;;15.10;99.90;;;;;;6211248;23;20035;-67
2022/07/10 06:36:20;;;;;;;11.85;1.75;;;15.10;99.90;;;;;;6185322;23;20054;-67
2022/07/10 06:38:46;;;;;;;10.52;2.20;;;15.20;99.90;;;;;;6211256;23;20024;-69
2022/07/10 06:41:12;;;;;;;9.82;1.45;;;15.20;99.90;;;;;;6210833;23;20020;-68
2022/07/10 06:43:38;;;;;;;10.68;1.40;;;15.20;99.90;;;;;;6211033;23;20122;-68
2022/07/10 06:46:04;;;;;;;6.43;1.30;;;15.20;99.90;;;;;;6186300;23;20020;-68
2022/07/10 06:48:29;;;;;;;7.47;1.67;;;15.30;99.90;;;;;;6160512;23;20051;-68
2022/07/10 06:50:55;;;;;;;10.68;1.35;;;15.30;99.90;;;;;;6237844;23;20024;-67
2022/07/10 06:53:26;;;;;;;6.22;1.70;;;15.30;99.90;;;;;;6210421;23;20070;-68
2022/07/10 06:55:53;;;;;;;6.07;1.50;;;15.50;99.90;;;;;;6211058;23;20347;-67
2022/07/10 06:58:19;;;;;;;7.78;1.40;;;15.60;99.90;;;;;;6210826;23;20020;-68
2022/07/10 07:00:45;;;;;;;6.53;0.98;;;15.70;99.90;;;;;;6210851;23;20016;-68
2022/07/10 07:03:10;;;;;;;10.40;1.92;;;15.70;99.90;;;;;;6211046;23;20023;-68
2022/07/10 07:05:38;;;;;;;5.88;1.20;;;15.70;99.90;;;;;;6209911;23;20454;-67
2022/07/10 07:08:04;;;;;;;3.90;0.90;;;15.70;99.90;;;;;;6211042;23;20024;-68
2022/07/10 07:10:29;;;;;;;3.55;0.73;;;15.80;99.90;;;;;;6185448;23;20032;-68
2022/07/10 07:12:55;;;;;;;4.80;0.95;;;15.70;99.90;;;;;;6211318;23;20443;-67
2022/07/10 07:15:23;;;;;;;5.93;1.10;;;15.80;99.90;;;;;;6185745;23;20375;-67
2022/07/10 07:18:08;;;;;;;3.38;0.80;;;15.80;99.90;;;;;;6185424;23;20055;-68
2022/07/10 07:23:19;;;;;;;6.93;1.23;;;15.80;99.90;;;;;;6236894;23;20020;-68
2022/07/10 07:25:48;;;;;;;4.95;1.00;;;15.90;99.90;;;;;;6211140;23;20015;-68
2022/07/10 07:28:15;;;;;;;6.05;1.33;;;15.90;99.90;;;;;;6236925;23;20091;-69
2022/07/10 07:30:42;;;;;;;5.07;1.15;;;16.00;99.90;;;;;;6186312;23;20415;-68
2022/07/10 07:33:07;;;;;;;8.63;1.25;;;16.10;99.90;;;;;;6210397;23;20020;-68
2022/07/10 07:35:33;;;;;;;7.13;1.10;;;16.20;99.90;;;;;;6210249;23;20032;-68
2022/07/10 07:38:01;;;;;;;4.93;1.13;;;16.30;99.90;;;;;;6210953;23;20052;-68
2022/07/10 07:40:27;;;;;;;5.30;0.93;;;16.50;99.90;;;;;;6209703;23;20016;-68
2022/07/10 07:42:53;;;;;;;9.85;1.17;;;16.50;99.90;;;;;;6210728;23;20020;-67
2022/07/10 07:45:19;;;;;;;6.63;1.30;;;16.60;99.90;;;;;;6209922;23;20448;-68
2022/07/10 07:47:46;;;;;;;7.65;1.25;;;16.60;99.90;;;;;;6185742;23;20034;-68
2022/07/10 07:50:14;;;;;;;6.03;1.35;;;16.60;99.90;;;;;;6210442;23;20017;-68
2022/07/10 07:52:40;;;;;;;6.75;1.30;;;16.70;99.90;;;;;;6209803;23;20405;-68
2022/07/10 07:55:06;;;;;;;6.60;1.50;;;16.60;99.90;;;;;;6210643;23;20020;-68
2022/07/10 07:57:32;;;;;;;5.35;1.45;;;16.50;99.90;;;;;;6209539;23;20043;-68
2022/07/10 07:59:57;;;;;;;8.18;1.33;;;16.30;99.90;;;;;;6209351;23;20028;-68
2022/07/10 08:02:23;;;;;;;6.30;0.98;;;16.30;99.90;;;;;;6206576;23;20016;-68
2022/07/10 08:04:49;;;;;;;3.92;1.00;;;16.40;99.90;;;;;;6208299;23;20059;-69
2022/07/10 08:07:14;;;;;;;8.80;1.05;;;16.70;99.90;;;;;;6206463;23;20103;-69
2022/07/10 08:09:40;;;;;;;4.78;1.15;;;17.00;99.90;;;;;;6207689;23;20466;-68
2022/07/10 08:12:06;;;;;;;9.95;1.25;;;17.20;99.90;;;;;;6233242;23;20020;-68
2022/07/10 08:14:32;;;;;;;6.03;1.08;;;17.30;99.90;;;;;;6235382;23;20028;-68
2022/07/10 08:16:58;;;;;;;6.80;0.80;;;17.40;99.90;;;;;;6210953;23;20143;-68
2022/07/10 08:19:24;;;;;;;5.95;1.55;;;17.30;99.90;;;;;;6209047;23;20024;-68
2022/07/10 08:21:49;;;;;;;6.25;0.88;;;17.30;99.90;;;;;;6210785;23;20458;-68
2022/07/10 08:24:15;;;;;;;4.90;0.90;;;17.20;99.90;;;;;;6209205;23;20052;-68
2022/07/10 08:26:41;;;;;;;5.40;1.10;;;17.10;99.90;;;;;;6210219;23;20103;-67
2022/07/10 08:29:07;;;;;;;5.78;0.80;;;17.00;99.90;;;;;;6209910;23;20028;-67
2022/07/10 08:31:34;;;;;;;6.05;0.90;;;16.80;99.90;;;;;;6209768;23;20156;-68
2022/07/10 08:34:00;;;;;;;7.20;1.88;;;16.70;99.90;;;;;;6209929;23;20080;-67
2022/07/10 08:36:26;;;;;;;6.75;1.33;;;16.50;99.90;;;;;;6208093;23;20028;-68
2022/07/10 08:38:54;;;;;;;3.88;1.30;;;16.40;99.90;;;;;;6211233;23;20095;-68
2022/07/10 08:41:26;;;;;;;4.05;1.02;;;16.40;99.90;;;;;;6208982;23;20438;-68
2022/07/10 08:43:52;;;;;;;9.25;1.35;;;16.40;99.90;;;;;;6161045;23;20008;-68
2022/07/10 08:46:18;;;;;;;4.93;1.20;;;16.40;99.90;;;;;;6210270;23;20489;-68
2022/07/10 08:48:48;;;;;;;7.47;1.58;;;16.40;99.90;;;;;;6238612;23;20024;-69
2022/07/10 08:51:30;;;;;;;9.38;1.40;;;16.40;99.90;;;;;;6211753;23;20023;-67
2022/07/10 08:53:57;;;;;;;5.60;0.90;;;16.40;99.90;;;;;;6211081;23;20443;-68
2022/07/10 08:56:24;;;;;;;5.20;1.23;;;16.40;99.90;;;;;;6212127;23;20027;-68
2022/07/10 08:58:53;;;;;;;6.25;0.85;;;16.50;99.90;;;;;;6211840;23;20024;-68
2022/07/10 09:01:22;;;;;;;;;;;16.50;99.90;;;;;;6212388;23;20094;-67
2022/07/10 09:03:52;;;;;;;5.35;0.98;;;16.50;99.90;;;;;;6186943;23;19915;-67
2022/07/10 09:06:18;;;;;;;;;;;16.40;99.90;;;;;;6186505;23;20012;-68
2022/07/10 09:08:59;;;;;;;5.47;1.00;;;16.40;99.90;;;;;;6211946;23;20219;-68
2022/07/10 09:11:28;;;;;;;8.23;1.20;;;16.40;99.90;;;;;;6185888;23;20053;-68
2022/07/10 09:14:00;;;;;;;3.95;0.93;;;16.50;99.90;;;;;;6212736;23;20512;-68
2022/07/10 09:16:33;;;;;;;9.05;1.67;;;16.60;99.90;;;;;;6211084;23;20363;-67
2022/07/10 09:19:20;;;;;;;9.60;0.88;;;16.70;99.90;;;;;;6186783;23;20463;-67
2022/07/10 09:21:48;;;;;;;9.18;1.15;;;16.70;99.90;;;;;;6212661;23;20055;-68
2022/07/10 09:24:19;;;;;;;10.38;1.52;;;16.70;99.90;;;;;;6210644;23;20016;-67
2022/07/10 09:26:59;;;;;;;3.50;1.02;;;16.50;99.90;;;;;;6212623;23;20050;-67
2022/07/10 09:29:25;;;;;;;7.05;0.85;;;16.40;99.90;;;;;;6210978;23;20016;-68
2022/07/10 09:31:56;;;;;;;4.07;1.10;;;16.40;99.90;;;;;;6238991;23;20044;-68
2022/07/10 09:37:41;;;;;;;7.30;1.02;;;16.30;99.90;;;;;;6185210;23;20106;-69
2022/07/10 09:40:08;;;;;;;4.60;1.00;;;16.10;99.90;;;;;;6212193;23;20128;-68
2022/07/10 09:42:34;;;;;;;5.40;1.05;;;15.80;99.90;;;;;;6211327;23;20027;-68
2022/07/10 09:45:12;;;;;;;11.15;1.13;;;15.50;99.90;;;;;;6238203;23;20077;-68
2022/07/10 09:47:44;;;;;;;4.55;0.73;;;15.40;99.90;;;;;;6186960;23;20134;-68
2022/07/10 09:50:21;;;;;;;4.35;1.02;;;15.40;99.90;;;;;;6237336;23;20031;-67
2022/07/10 09:52:50;;;;;;;3.90;0.98;;;15.40;99.90;;;;;;6187102;23;20020;-67
2022/07/10 09:55:19;;;;;;;5.30;1.40;;;15.50;99.90;;;;;;6210792;23;20047;-67
2022/07/10 09:57:50;;;;;;;9.70;0.73;;;15.60;99.90;;;;;;6211015;23;20024;-68
2022/07/10 10:00:16;;;;;;;8.57;0.80;;;15.70;99.90;;;;;;6238211;23;20055;-68
2022/07/10 10:02:42;;;;;;;6.18;0.90;;;15.80;99.90;;;;;;6210718;23;20027;-67
2022/07/10 10:05:08;;;;;;;6.65;1.02;;;15.80;99.90;;;;;;6211892;23;20469;-67
2022/07/10 10:07:37;;;;;;;3.95;0.60;;;15.70;99.90;;;;;;6210450;23;20374;-68
2022/07/10 10:10:06;;;;;;;2.25;0.60;;;15.70;99.90;;;;;;6212129;23;20020;-67
2022/07/10 10:12:45;;;;;;;3.42;1.17;;;15.60;99.90;;;;;;6210496;23;20458;-67
2022/07/10 10:15:11;;;;;;;9.30;0.98;;;15.70;99.90;;;;;;6211344;23;20019;-67
2022/07/10 10:17:40;;;;;;;3.92;1.20;;;15.70;99.90;;;;;;6238029;23;20082;-67
2022/07/10 10:22:55;;;;;;;4.78;0.80;;;15.90;99.90;;;;;;6211515;23;20377;-67
2022/07/10 10:25:23;;;;;;;4.80;0.93;;;15.90;99.90;;;;;;6209863;23;20020;-68
2022/07/10 10:27:50;;;;;;;4.88;0.82;;;16.00;99.90;;;;;;6211362;23;20050;-67
2022/07/10 10:30:16;;;;;;;3.78;0.75;;;16.20;99.90;;;;;;6210697;23;20091;-68
2022/07/10 10:32:42;;;;;;;3.45;0.70;;;16.30;99.90;;;;;;6185705;23;20423;-67
2022/07/10 10:35:10;;;;;;;2.17;0.70;;;16.40;99.90;;;;;;6211587;23;20101;-67
2022/07/10 10:37:37;;;;;;;4.38;0.70;;;16.50;99.90;;;;;;6236509;23;20099;-67
2022/07/10 10:40:05;;;;;;;5.35;0.80;;;16.60;99.90;;;;;;6185654;23;20016;-67
2022/07/10 10:42:36;;;;;;;3.65;0.63;;;16.50;99.90;;;;;;6209465;23;20113;-68
2022/07/10 10:45:25;;;;;;;4.53;0.88;;;16.40;99.90;;;;;;6185794;23;20024;-68
2022/07/10 10:47:58;;;;;;;2.70;0.70;;;16.20;99.90;;;;;;6211172;23;20023;-68
2022/07/10 10:50:46;;;;;;;8.70;1.40;;;16.00;99.90;;;;;;6209213;23;20020;-68
2022/07/10 10:53:14;;;;;;;1.83;0.90;;;15.90;99.90;;;;;;6207526;23;20024;-68
2022/07/10 10:56:01;;;;;;;3.45;0.63;;;15.80;99.90;;;;;;6206499;23;20396;-69
2022/07/10 10:58:28;;;;;;;3.80;0.85;;;15.70;99.90;;;;;;6206860;23;20114;-71
2022/07/10 11:01:20;;;;;;;3.83;0.65;;;15.60;99.90;;;;;;6207820;23;20442;-70
2022/07/10 11:04:08;;;;;;;3.22;0.70;;;15.60;99.90;;;;;;6200043;23;20024;-70
2022/07/10 11:06:53;;;;;;;1.98;0.60;;;15.70;99.90;;;;;;6177154;23;20024;-70
2022/07/10 11:09:32;;;;;;;4.22;0.70;;;15.70;99.90;;;;;;6182170;23;20023;-69
2022/07/10 11:11:59;;;;;;;;;;;15.80;99.90;;;;;;6207940;23;20028;-69
2022/07/10 11:14:28;;;;;;;3.20;0.65;;;16.00;99.90;;;;;;6208035;23;19966;-69
2022/07/10 11:16:57;;;;;;;2.08;0.60;;;16.10;99.90;;;;;;6207425;23;20091;-69
2022/07/10 11:19:25;;;;;;;3.75;0.60;;;16.30;99.90;;;;;;6208243;23;20024;-69
2022/07/10 11:22:13;;;;;;;8.00;1.00;;;16.30;99.90;;;;;;6206478;23;20058;-69
2022/07/10 11:25:16;;;;;;;3.22;0.68;;;16.30;99.90;;;;;;6206140;23;20020;-69
2022/07/10 11:27:53;;;;;;;5.93;1.40;;;16.30;99.90;;;;;;6207482;23;20022;-69
2022/07/10 11:30:19;;;;;;;1.85;0.52;;;16.30;99.90;;;;;;6182026;23;20020;-69
2022/07/10 11:32:45;;;;;;;5.07;0.75;;;16.20;99.90;;;;;;6207197;23;20031;-68
2022/07/10 11:35:12;;;;;;;0.77;0.60;;;16.20;99.90;;;;;;6208251;23;20466;-68
2022/07/10 11:37:50;;;;;;;1.95;0.80;;;16.20;99.90;;;;;;6206271;23;20095;-69
2022/07/10 11:40:16;;;;;;;4.07;0.60;;;16.20;99.90;;;;;;6207864;23;20047;-68
2022/07/10 11:42:53;;;;;;;6.68;0.90;;;16.10;99.90;;;;;;6204134;23;20031;-69
2022/07/10 11:45:30;;;;;;;1.88;0.70;;;16.20;99.90;;;;;;6207264;23;20023;-69
2022/07/10 11:47:57;;;;;;;2.97;0.65;;;16.30;99.90;;;;;;6208129;23;20479;-69
2022/07/10 11:50:24;;;;;;;4.75;0.82;;;16.30;99.90;;;;;;6206778;23;20016;-69
2022/07/10 11:52:50;;;;;;;2.28;0.60;;;16.30;99.90;;;;;;6207241;23;20364;-69
2022/07/10 11:55:19;;;;;;;0.73;0.43;;;16.30;99.90;;;;;;6233978;23;20031;-69
2022/07/10 11:57:48;;;;;;;3.15;0.63;;;16.40;99.90;;;;;;6209720;23;20020;-68
2022/07/10 12:00:33;;;;;;;1.48;0.60;;;16.30;99.90;;;;;;6207391;23;20482;-68
2022/07/10 12:03:20;;;;;;;5.43;1.33;;;16.20;99.90;;;;;;6210503;23;20012;-68
2022/07/10 12:05:48;;;;;;;1.65;0.77;;;16.10;99.90;;;;;;6212404;23;20067;-69
2022/07/10 12:08:14;;;;;;;4.80;1.00;;;15.90;99.90;;;;;;6210595;23;20020;-69
2022/07/10 12:10:41;;;;;;;5.43;1.00;;;15.70;99.90;;;;;;6210473;23;20343;-71
2022/07/10 12:13:10;;;;;;;4.50;0.80;;;15.60;99.90;;;;;;6210053;23;20522;-71
2022/07/10 12:15:41;;;;;;;5.70;1.02;;;15.50;99.90;;;;;;6185496;23;20381;-71
2022/07/10 12:18:28;;;;;;;2.38;0.60;;;15.50;99.90;;;;;;6210637;23;20078;-72
2022/07/10 12:20:54;;;;;;;6.78;1.55;;;15.40;99.90;;;;;;6210553;23;20028;-72
2022/07/10 12:23:22;;;;;;;5.65;1.20;;;15.40;99.90;;;;;;6212820;23;20016;-71
2022/07/10 12:25:49;;;;;;;4.68;1.33;;;15.40;99.90;;;;;;6236278;23;20012;-72
2022/07/10 12:28:15;;;;;;;8.13;1.25;;;15.40;99.90;;;;;;6238530;23;20027;-73
2022/07/10 12:30:43;;;;;;;6.88;0.80;;;15.30;99.90;;;;;;6236700;23;20481;-74
2022/07/10 12:33:10;;;;;;;4.53;1.08;;;15.40;99.90;;;;;;6212281;23;20588;-74
2022/07/10 12:35:53;;;;;;;6.47;1.25;;;15.40;99.90;;;;;;6236858;23;20016;-76
2022/07/10 12:38:22;;;;;;;6.15;0.90;;;15.50;99.90;;;;;;6234256;23;20111;-74
2022/07/10 12:40:48;;;;;;;2.65;0.73;;;15.50;99.90;;;;;;6234942;23;20069;-75
2022/07/10 12:43:26;;;;;;;4.05;0.60;;;15.60;99.90;;;;;;6208607;23;20018;-75
2022/07/10 12:46:19;;;;;;;4.05;0.70;;;15.60;99.90;;;;;;6234370;23;20494;-76
2022/07/10 12:49:02;;;;;;;3.03;1.08;;;15.50;99.90;;;;;;6234500;23;20056;-76
2022/07/10 12:51:30;;;;;;;4.43;1.23;;;15.50;99.90;;;;;;6209043;23;20091;-75
2022/07/10 12:53:56;;;;;;;3.53;0.85;;;15.60;99.90;;;;;;6235368;23;20023;-77
2022/07/10 12:56:37;;;;;;;4.10;0.82;;;15.80;99.90;;;;;;6234747;23;20024;-76
2022/07/10 12:59:16;;;;;;;4.78;1.05;;;15.90;99.90;;;;;;6235242;23;20020;-77
2022/07/10 13:01:45;;;;;;;9.60;1.23;;;15.90;99.90;;;;;;6184955;23;20042;-76